Weather History for KPCZ - November, 2013

Change the Weather History Date:

Tuesday, November 12, 2013

  Actual Average Record
Temperature  
Mean Temperature 25 °F -  
Max Temperature 31 °F 42 °F 63 °F (1964)
Min Temperature 19 °F 25 °F 9 °F (1959)
Degree Days  
Heating Degree Days 40    
Moisture  
Dew Point 11 °F    
Average Humidity 57    
Maximum Humidity 73    
Minimum Humidity 37    
Precipitation  
Precipitation 0.00 in - - ()
Sea Level Pressure  
Sea Level Pressure 30.60 in    
Wind  
Wind Speed 7 mph (West)    
Max Wind Speed 13 mph    
Max Gust Speed 18 mph    
Visibility 10 miles    
Events      
Averages and records for this station are not official NWS values.
T = Trace of Precipitation, MM = Missing Value Source: NWS Daily Summary

Daily Weather History Graph

Daily Weather History Graph

Search for Another Location

Airport or City:

Trip Planner

Search our weather history database for the weather conditions in past years. The results will help you decide how hot, cold, wet, or windy it might be!

Date:

Astronomy

Nov. 12, 2013 Rise Set
Actual Time 6:48 AM CST 4:31 PM CST
Civil Twilight 6:17 AM CST 5:02 PM CST
Nautical Twilight 5:42 AM CST 5:37 PM CST
Astronomical Twilight 5:08 AM CST 6:11 PM CST
Moon 1:55 PM CST (11/12) 1:26 AM CST (11/12)
Length of Visible Light 10h 45m
Length of Day
9h 43m
Waxing Gibbous, 76% of the Moon is Illuminated
Nov 12
Waxing Gibbous
Nov 17
Full
Nov 25
Last Quarter
Dec 2
New
Dec 9
First Quarter

Hourly Weather History & Observations

Time (CST) Temp. Windchill Dew Point Humidity Pressure Visibility Wind Dir Wind Speed Gust Speed Precip Events Conditions
12:15 AM 26.4 °F 19.8 °F 14.9 °F 62% 30.55 in 10.0 mi NW 5.8 mph - N/A   Mostly Cloudy
12:35 AM 25.7 °F 19.0 °F 14.9 °F 64% 30.56 in 10.0 mi NW 5.8 mph - N/A   Scattered Clouds
12:55 AM 25.2 °F 18.3 °F 14.9 °F 65% 30.56 in 10.0 mi WNW 5.8 mph - N/A   Clear
1:15 AM 24.8 °F 17.9 °F 14.2 °F 64% 30.57 in 10.0 mi WNW 5.8 mph - N/A   Clear
1:35 AM 24.3 °F 17.3 °F 13.6 °F 64% 30.57 in 10.0 mi NW 5.8 mph - N/A   Clear
1:55 AM 23.9 °F 16.8 °F 14.0 °F 66% 30.58 in 10.0 mi NW 5.8 mph - N/A   Clear
2:15 AM 23.0 °F 18.4 °F 14.0 °F 68% 30.59 in 10.0 mi WNW 3.5 mph - N/A   Clear
2:35 AM 21.9 °F 14.5 °F 14.0 °F 72% 30.59 in 10.0 mi West 5.8 mph - N/A   Clear
2:55 AM 22.1 °F 15.9 °F 14.7 °F 73% 30.59 in 10.0 mi WNW 4.6 mph - N/A   Clear
3:15 AM 22.5 °F 14.1 °F 14.4 °F 71% 30.60 in 10.0 mi WNW 6.9 mph - N/A   Clear
3:35 AM 22.1 °F 14.7 °F 14.0 °F 71% 30.61 in 10.0 mi WNW 5.8 mph - N/A   Clear
3:55 AM 21.9 °F 14.5 °F 13.6 °F 70% 30.62 in 10.0 mi WNW 5.8 mph - N/A   Clear
4:15 AM 21.6 °F 13.0 °F 13.1 °F 70% 30.62 in 10.0 mi WNW 6.9 mph - N/A   Clear
4:35 AM 21.2 °F 12.6 °F 13.1 °F 71% 30.62 in 10.0 mi WNW 6.9 mph - N/A   Clear
4:55 AM 20.8 °F 12.1 °F 12.6 °F 70% 30.63 in 10.0 mi NW 6.9 mph - N/A   Clear
5:15 AM 20.3 °F 11.5 °F 12.4 °F 71% 30.63 in 10.0 mi NW 6.9 mph - N/A   Clear
5:35 AM 20.3 °F 11.5 °F 12.2 °F 71% 30.64 in 10.0 mi WNW 6.9 mph - N/A   Clear
5:55 AM 20.3 °F 10.6 °F 12.0 °F 70% 30.64 in 10.0 mi WNW 8.1 mph - N/A   Clear
6:15 AM 19.8 °F 10.8 °F 11.7 °F 71% 30.66 in 10.0 mi WNW 6.9 mph - N/A   Clear
6:35 AM 19.4 °F 10.4 °F 11.7 °F 72% 30.66 in 10.0 mi WNW 6.9 mph - N/A   Clear
6:55 AM 19.2 °F 11.3 °F 11.5 °F 72% 30.66 in 10.0 mi WNW 5.8 mph - N/A   Clear
7:15 AM 19.4 °F 11.5 °F 11.3 °F 71% 30.66 in 10.0 mi West 5.8 mph - N/A   Clear
7:35 AM 19.9 °F 11.1 °F 11.7 °F 70% 30.67 in 10.0 mi West 6.9 mph - N/A   Clear
7:55 AM 20.5 °F 11.7 °F 11.7 °F 69% 30.67 in 10.0 mi West 6.9 mph - N/A   Clear
8:15 AM 21.2 °F 10.1 °F 11.3 °F 66% 30.67 in 10.0 mi WNW 10.4 mph - N/A   Clear
8:35 AM 21.9 °F 11.7 °F 11.5 °F 64% 30.67 in 10.0 mi WNW 9.2 mph - N/A   Clear
8:55 AM 22.3 °F 13.0 °F 11.3 °F 63% 30.68 in 10.0 mi NW 8.1 mph - N/A   Clear
9:15 AM 24.1 °F 17.0 °F 11.8 °F 60% 30.68 in 10.0 mi WNW 5.8 mph - N/A   Clear
9:35 AM 24.8 °F 16.1 °F 11.1 °F 56% 30.67 in 10.0 mi WNW 8.1 mph - N/A   Clear
9:55 AM 25.9 °F 16.6 °F 10.2 °F 52% 30.68 in 10.0 mi West 9.2 mph - N/A   Clear
10:15 AM 26.4 °F 17.3 °F 10.2 °F 51% 30.68 in 10.0 mi West 9.2 mph - N/A   Clear
10:35 AM 26.2 °F 17.8 °F 9.0 °F 48% 30.67 in 10.0 mi West 8.1 mph 16.1 mph N/A   Clear
10:55 AM 26.6 °F 16.2 °F 9.0 °F 47% 30.67 in 10.0 mi WNW 11.5 mph - N/A   Clear
11:15 AM 27.3 °F 16.6 °F 7.3 °F 43% 30.66 in 10.0 mi WNW 12.7 mph 16.1 mph N/A   Scattered Clouds
11:35 AM 27.5 °F 18.0 °F 8.2 °F 44% 30.66 in 10.0 mi West 10.4 mph 16.1 mph N/A   Scattered Clouds
11:55 AM 29.1 °F 20.0 °F 8.2 °F 42% 30.65 in 10.0 mi West 10.4 mph - N/A   Clear
12:15 PM 28.9 °F 19.8 °F 8.1 °F 41% 30.64 in 10.0 mi West 10.4 mph - N/A   Clear
12:35 PM 29.1 °F 20.0 °F 7.3 °F 40% 30.64 in 10.0 mi West 10.4 mph - N/A   Clear
12:55 PM 30.0 °F 21.7 °F 7.2 °F 38% 30.63 in 10.0 mi WNW 9.2 mph 18.4 mph N/A   Clear
1:15 PM 29.7 °F 22.8 °F 6.6 °F 38% 30.62 in 10.0 mi West 6.9 mph - N/A   Clear
1:35 PM 29.8 °F 21.5 °F 7.7 °F 39% 30.61 in 10.0 mi WNW 9.2 mph - N/A   Clear
1:55 PM 30.2 °F 21.3 °F 7.5 °F 39% 30.61 in 10.0 mi West 10.4 mph 17.3 mph N/A   Clear
2:15 PM 30.9 °F 22.8 °F 7.2 °F 37% 30.60 in 10.0 mi WNW 9.2 mph 16.1 mph N/A   Scattered Clouds
2:35 PM 31.1 °F 21.4 °F 8.2 °F 38% 30.60 in 10.0 mi West 12.7 mph 17.3 mph N/A   Scattered Clouds
2:55 PM 30.6 °F 21.8 °F 7.3 °F 38% 30.60 in 10.0 mi WNW 10.4 mph 16.1 mph N/A   Clear
3:15 PM 30.2 °F 20.8 °F 7.7 °F 39% 30.59 in 10.0 mi West 11.5 mph - N/A   Clear
3:35 PM 29.8 °F 21.5 °F 6.1 °F 37% 30.59 in 10.0 mi WNW 9.2 mph 16.1 mph N/A   Clear
3:55 PM 29.3 °F 20.8 °F 6.8 °F 39% 30.58 in 10.0 mi West 9.2 mph - N/A   Clear
4:15 PM 28.8 °F 20.9 °F 6.6 °F 39% 30.58 in 10.0 mi West 8.1 mph - N/A   Clear
4:35 PM 27.9 °F 19.8 °F 7.0 °F 41% 30.58 in 10.0 mi West 8.1 mph - N/A   Clear
4:55 PM 26.8 °F 20.2 °F 7.9 °F 45% 30.58 in 10.0 mi West 5.8 mph - N/A   Clear
5:15 PM 26.2 °F 20.7 °F 8.1 °F 46% 30.57 in 10.0 mi West 4.6 mph - N/A   Clear
5:35 PM 25.2 °F 19.5 °F 8.4 °F 49% 30.57 in 10.0 mi WSW 4.6 mph - N/A   Clear
5:55 PM 24.6 °F 17.7 °F 9.0 °F 51% 30.56 in 10.0 mi West 5.8 mph - N/A   Clear
6:15 PM 24.6 °F 16.7 °F 9.5 °F 53% 30.56 in 10.0 mi West 6.9 mph - N/A   Clear
6:35 PM 24.6 °F 15.8 °F 9.5 °F 53% 30.56 in 10.0 mi West 8.1 mph - N/A   Clear
6:55 PM 25.2 °F 15.7 °F 9.5 °F 52% 30.56 in 10.0 mi West 9.2 mph - N/A   Clear
7:15 PM 24.8 °F 16.1 °F 10.0 °F 54% 30.55 in 10.0 mi West 8.1 mph - N/A   Clear
7:35 PM 25.5 °F 16.9 °F 10.0 °F 52% 30.55 in 10.0 mi West 8.1 mph - N/A   Clear
7:55 PM 24.8 °F 16.9 °F 10.4 °F 54% 30.55 in 10.0 mi West 6.9 mph - N/A   Clear
8:15 PM 24.3 °F 16.3 °F 10.9 °F 57% 30.54 in 10.0 mi WSW 6.9 mph - N/A   Clear
8:35 PM 23.2 °F 17.2 °F 11.3 °F 60% 30.53 in 10.0 mi SW 4.6 mph - N/A   Clear
8:55 PM 23.0 °F 13.9 °F 12.0 °F 63% 30.53 in 10.0 mi WSW 8.1 mph - N/A   Clear
9:15 PM 23.9 °F 15.0 °F 12.0 °F 61% 30.53 in 10.0 mi West 8.1 mph - N/A   Clear
9:35 PM 23.5 °F 13.7 °F 12.2 °F 62% 30.52 in 10.0 mi West 9.2 mph - N/A   Clear
9:55 PM 23.5 °F 15.4 °F 12.6 °F 63% 30.51 in 10.0 mi WSW 6.9 mph - N/A   Clear
10:15 PM 23.0 °F 13.9 °F 12.9 °F 65% 30.51 in 10.0 mi WSW 8.1 mph - N/A   Clear
10:35 PM 23.2 °F 14.1 °F 13.1 °F 65% 30.50 in 10.0 mi WSW 8.1 mph - N/A   Clear
10:55 PM 23.0 °F 13.9 °F 13.1 °F 66% 30.50 in 10.0 mi WSW 8.1 mph - N/A   Clear
11:15 PM 22.8 °F 12.2 °F 13.1 °F 66% 30.50 in 10.0 mi WSW 10.4 mph - N/A   Clear
11:35 PM 22.8 °F 12.9 °F 13.1 °F 66% 30.50 in 10.0 mi WSW 9.2 mph - N/A   Clear
11:55 PM 22.1 °F 12.0 °F 13.1 °F 68% 30.49 in 10.0 mi WSW 9.2 mph - N/A   Clear